createdAt,value
2022-08-17T00:00:01.374Z,33.95
2022-08-17T00:05:12.041Z,33.55
2022-08-17T00:10:18.912Z,31.25
2022-08-17T00:15:21.671Z,32.38
2022-08-17T00:20:30.616Z,31.40
2022-08-17T00:25:37.342Z,30.30
2022-08-17T00:30:51.246Z,32.55
2022-08-17T00:35:59.036Z,31.05
2022-08-17T00:41:05.434Z,30.95
2022-08-17T00:46:10.858Z,31.88
2022-08-17T00:51:22.563Z,31.75
2022-08-17T00:56:42.711Z,32.40
2022-08-17T01:01:46.457Z,30.25
2022-08-17T01:06:51.229Z,31.13
2022-08-17T01:12:02.460Z,32.45
2022-08-17T01:17:05.424Z,33.83
2022-08-17T01:22:16.563Z,33.25
2022-08-17T01:27:21.462Z,34.13
2022-08-17T01:32:33.830Z,39.88
2022-08-17T01:37:39.590Z,31.65
2022-08-17T01:42:57.392Z,30.95
2022-08-17T01:48:00.271Z,30.90
2022-08-17T01:53:04.637Z,31.23
2022-08-17T01:58:10.093Z,30.77
2022-08-17T02:03:14.597Z,34.13
2022-08-17T02:08:20.380Z,35.85
2022-08-17T02:13:24.539Z,30.17
2022-08-17T02:18:26.929Z,29.48
2022-08-17T02:23:30.840Z,30.02
2022-08-17T02:28:34.941Z,30.08
2022-08-17T02:33:43.795Z,31.10
2022-08-17T02:38:47.992Z,32.72
2022-08-17T02:43:49.840Z,29.42
2022-08-17T02:48:53.950Z,29.90
2022-08-17T02:54:03.875Z,32.35
2022-08-17T02:59:21.167Z,33.00
2022-08-17T03:04:25.512Z,35.22
2022-08-17T03:09:27.291Z,31.25
2022-08-17T03:14:32.233Z,30.88
2022-08-17T03:19:41.544Z,32.42
2022-08-17T03:24:47.295Z,31.77
2022-08-17T03:29:52.877Z,31.92
2022-08-17T03:35:00.286Z,30.77
2022-08-17T03:40:03.917Z,33.00
2022-08-17T03:45:10.673Z,35.22
2022-08-17T03:50:32.732Z,30.52
2022-08-17T03:55:56.316Z,33.72
2022-08-17T04:00:58.147Z,31.75
2022-08-17T04:06:02.487Z,34.92
2022-08-17T04:11:06.362Z,33.45
2022-08-17T04:16:08.340Z,38.70
2022-08-17T04:21:14.844Z,36.73
2022-08-17T04:26:52.941Z,35.67
2022-08-17T04:31:40.707Z,34.20
2022-08-17T04:36:42.435Z,34.40
2022-08-17T04:42:16.956Z,48.60
2022-08-17T04:47:19.254Z,54.00
2022-08-17T04:52:29.858Z,53.50
2022-08-17T04:57:45.086Z,52.22
2022-08-17T05:02:50.924Z,50.83
2022-08-17T05:07:56.437Z,53.05
2022-08-17T05:13:02.595Z,60.13
2022-08-17T05:18:08.693Z,68.80
2022-08-17T05:23:19.943Z,73.03
2022-08-17T05:28:27.413Z,78.70
2022-08-17T05:33:44.327Z,71.82
2022-08-17T05:38:50.660Z,77.63
2022-08-17T05:43:56.485Z,71.03
2022-08-17T05:49:08.089Z,68.63
2022-08-17T05:54:34.822Z,74.88
2022-08-17T05:59:58.143Z,78.82
2022-08-17T06:05:35.017Z,77.57
2022-08-17T06:11:16.961Z,77.97
2022-08-17T06:16:33.656Z,70.50
2022-08-17T06:21:42.529Z,65.10
2022-08-17T06:26:47.545Z,64.40
2022-08-17T06:31:52.071Z,61.80
2022-08-17T06:37:06.504Z,58.67
2022-08-17T06:42:55.125Z,57.33
2022-08-17T06:47:52.649Z,59.92
2022-08-17T06:52:58.491Z,53.38
2022-08-17T06:58:15.977Z,50.55
2022-08-17T07:03:37.735Z,45.88
2022-08-17T07:09:01.236Z,38.95
2022-08-17T07:14:17.454Z,38.15
2022-08-17T07:19:24.908Z,36.75
2022-08-17T07:24:47.331Z,34.65
2022-08-17T07:30:10.252Z,29.83
2022-08-17T07:35:21.120Z,30.48
2022-08-17T07:40:49.960Z,26.45
2022-08-17T07:46:22.294Z,23.73
2022-08-17T07:51:36.508Z,27.60
2022-08-17T07:56:42.648Z,25.35
2022-08-17T08:01:57.476Z,22.98
2022-08-17T08:07:11.532Z,19.80
2022-08-17T08:12:23.090Z,21.27
2022-08-17T08:17:36.594Z,17.58
2022-08-17T08:23:00.605Z,16.77
2022-08-17T08:28:13.476Z,16.23
2022-08-17T08:33:45.122Z,16.73
2022-08-17T08:38:56.701Z,16.73
2022-08-17T08:44:18.911Z,14.18
2022-08-17T08:50:02.006Z,16.17
2022-08-17T08:55:16.763Z,14.90
2022-08-17T09:00:20.153Z,17.17
2022-08-17T09:05:54.175Z,20.17
2022-08-17T09:11:06.488Z,19.92
2022-08-17T09:16:23.150Z,20.10
2022-08-17T09:21:48.440Z,19.55
2022-08-17T09:26:59.664Z,20.27
2022-08-17T09:32:10.016Z,17.45
2022-08-17T09:37:24.803Z,16.02
2022-08-17T09:42:31.231Z,19.40
2022-08-17T09:47:48.369Z,16.38
2022-08-17T09:52:58.337Z,15.13
2022-08-17T09:58:21.282Z,15.27
2022-08-17T10:03:34.296Z,14.93
2022-08-17T10:08:54.186Z,15.73
2022-08-17T10:14:36.885Z,14.52
2022-08-17T10:19:39.513Z,14.52
2022-08-17T10:25:22.366Z,14.40
2022-08-17T10:30:31.129Z,14.93
2022-08-17T10:35:42.160Z,18.40
2022-08-17T10:41:05.940Z,14.65
2022-08-17T10:46:35.455Z,13.52
2022-08-17T10:51:39.689Z,10.80
2022-08-17T10:56:45.040Z,11.13
2022-08-17T11:01:58.828Z,11.85
2022-08-17T11:07:33.008Z,11.35
2022-08-17T11:13:01.235Z,15.70
2022-08-17T11:18:05.990Z,15.50
2022-08-17T11:23:10.735Z,14.60
2022-08-17T11:28:48.718Z,17.00
2022-08-17T11:34:00.191Z,16.15
2022-08-17T11:39:15.648Z,14.90
2022-08-17T11:44:51.709Z,14.45
2022-08-17T11:50:36.805Z,15.38
2022-08-17T11:55:41.907Z,15.05
2022-08-17T12:00:49.225Z,13.25
2022-08-17T12:06:00.284Z,18.10
2022-08-17T12:11:18.977Z,14.25
2022-08-17T12:16:44.328Z,16.40
2022-08-17T12:21:54.540Z,15.35
2022-08-17T12:27:04.520Z,14.63
2022-08-17T12:32:09.766Z,16.65
2022-08-17T12:37:23.335Z,15.90
2022-08-17T12:42:29.451Z,16.80
2022-08-17T12:47:37.128Z,15.68
2022-08-17T12:52:45.785Z,16.77
2022-08-17T12:57:48.542Z,15.13
2022-08-17T13:03:09.662Z,11.70
2022-08-17T13:08:27.200Z,13.57
2022-08-17T13:13:31.895Z,11.25
2022-08-17T13:18:44.937Z,11.07
2022-08-17T13:24:00.632Z,9.55
2022-08-17T13:29:25.073Z,9.98
2022-08-17T13:34:31.372Z,9.65
2022-08-17T13:39:43.499Z,10.68
2022-08-17T13:44:46.962Z,7.38
2022-08-17T13:49:51.469Z,5.28
2022-08-17T13:55:01.061Z,4.47
2022-08-17T14:00:13.221Z,5.90
2022-08-17T14:05:15.018Z,4.60
2022-08-17T14:10:20.762Z,4.57
2022-08-17T14:15:24.698Z,4.13
2022-08-17T14:20:49.504Z,3.75
2022-08-17T14:25:53.445Z,3.60
2022-08-17T14:31:03.406Z,4.82
2022-08-17T14:36:05.221Z,4.20
2022-08-17T14:41:09.291Z,5.15
2022-08-17T14:46:12.392Z,5.30
2022-08-17T14:51:14.576Z,7.28
2022-08-17T14:56:19.945Z,7.55
2022-08-17T15:01:22.312Z,7.55
2022-08-17T15:06:24.885Z,6.95
2022-08-17T15:11:29.706Z,7.38
2022-08-17T15:16:36.013Z,7.28
2022-08-17T15:21:41.593Z,8.40
2022-08-17T15:26:44.477Z,8.15
2022-08-17T15:31:48.814Z,9.25
2022-08-17T15:36:50.700Z,8.77
2022-08-17T15:41:58.577Z,10.85
2022-08-17T15:47:01.228Z,8.82
2022-08-17T15:52:24.191Z,9.88
2022-08-17T15:57:33.947Z,9.05
2022-08-17T16:03:44.835Z,9.65
2022-08-17T16:08:02.296Z,10.00
2022-08-17T16:13:04.605Z,9.52
2022-08-17T16:18:13.173Z,10.00
2022-08-17T16:23:21.831Z,10.07
2022-08-17T16:28:29.865Z,9.68
2022-08-17T16:33:39.498Z,5.95
2022-08-17T16:38:41.286Z,7.30
2022-08-17T16:43:45.621Z,11.95
2022-08-17T16:48:49.623Z,10.57
2022-08-17T16:53:57.796Z,11.95
2022-08-17T16:59:21.136Z,12.38
2022-08-17T17:04:35.192Z,17.60
2022-08-17T17:09:46.469Z,15.87
2022-08-17T17:14:59.257Z,14.55
2022-08-17T17:20:17.757Z,13.48
2022-08-17T17:25:30.477Z,11.60
2022-08-17T17:30:42.612Z,12.15
2022-08-17T17:35:53.429Z,10.60
2022-08-17T17:41:03.015Z,10.30
2022-08-17T17:46:28.109Z,8.65
2022-08-17T17:52:09.111Z,10.25
2022-08-17T17:57:12.544Z,10.60
2022-08-17T18:02:51.423Z,11.20
2022-08-17T18:08:19.895Z,11.43
2022-08-17T18:13:54.254Z,11.85
2022-08-17T18:18:57.775Z,8.07
2022-08-17T18:24:05.466Z,8.18
2022-08-17T18:29:15.817Z,7.10
2022-08-17T18:34:46.473Z,5.68
2022-08-17T18:39:51.390Z,7.80
2022-08-17T18:44:55.351Z,7.80
2022-08-17T18:50:23.065Z,8.25
2022-08-17T18:55:31.420Z,7.40
2022-08-17T19:00:38.184Z,7.97
2022-08-17T19:05:44.406Z,9.10
2022-08-17T19:10:49.329Z,7.55
2022-08-17T19:16:13.841Z,7.55
2022-08-17T19:21:20.558Z,8.10
2022-08-17T19:26:55.209Z,6.90
2022-08-17T19:31:55.324Z,7.50
2022-08-17T19:37:09.081Z,7.30
2022-08-17T19:42:20.108Z,8.98
2022-08-17T19:47:55.414Z,7.35
2022-08-17T19:53:23.366Z,8.93
2022-08-17T19:58:33.800Z,8.27
2022-08-17T20:04:00.525Z,7.05
2022-08-17T20:09:14.998Z,6.10
2022-08-17T20:14:38.228Z,7.30
2022-08-17T20:19:51.901Z,9.85
2022-08-17T20:24:55.065Z,7.50
2022-08-17T20:30:10.339Z,7.20
2022-08-17T20:35:17.250Z,6.75
2022-08-17T20:40:23.291Z,7.40
2022-08-17T20:45:27.307Z,9.15
2022-08-17T20:50:37.940Z,10.68
2022-08-17T20:55:51.937Z,9.90
2022-08-17T21:00:57.376Z,11.18
2022-08-17T21:06:16.848Z,11.20
2022-08-17T21:11:58.202Z,11.63
2022-08-17T21:17:17.543Z,11.60
2022-08-17T21:22:38.134Z,11.13
2022-08-17T21:28:02.582Z,10.55
2022-08-17T21:33:31.871Z,11.05
2022-08-17T21:38:42.896Z,10.68
2022-08-17T21:43:48.295Z,13.13
2022-08-17T21:48:54.457Z,11.93
2022-08-17T21:54:04.178Z,10.40
2022-08-17T21:59:13.250Z,9.45
2022-08-17T22:04:14.953Z,7.85
2022-08-17T22:09:34.069Z,7.30
2022-08-17T22:14:53.044Z,6.75
2022-08-17T22:20:01.471Z,6.57
2022-08-17T22:25:08.575Z,6.00
2022-08-17T22:30:31.414Z,6.88
2022-08-17T22:35:36.578Z,6.63
2022-08-17T22:40:41.377Z,5.85
2022-08-17T22:45:53.421Z,6.68
2022-08-17T22:51:12.774Z,5.82
2022-08-17T22:56:40.999Z,5.53
2022-08-17T23:01:45.481Z,5.82
2022-08-17T23:06:50.075Z,6.35
2022-08-17T23:11:59.460Z,8.57
2022-08-17T23:17:04.082Z,9.70
2022-08-17T23:22:08.710Z,11.35
2022-08-17T23:27:15.938Z,10.90
2022-08-17T23:32:22.235Z,13.55
2022-08-17T23:37:27.119Z,13.48
2022-08-17T23:42:31.692Z,13.85
2022-08-17T23:47:33.460Z,13.95
2022-08-17T23:52:41.210Z,12.50
2022-08-17T23:57:45.200Z,13.43
